createdAt,value
2018-10-12T00:00:22.283Z,97970.16
2018-10-12T00:02:52.041Z,97964.78
2018-10-12T00:05:21.645Z,97964.48
2018-10-12T00:07:51.525Z,97971.76
2018-10-12T00:10:21.234Z,97974.41
2018-10-12T00:12:50.885Z,97969.31
2018-10-12T00:15:20.569Z,97972.98
2018-10-12T00:17:50.255Z,97972.49
2018-10-12T00:20:20.028Z,97967.39
2018-10-12T00:22:49.605Z,97970.29
2018-10-12T00:25:19.306Z,97972.30
2018-10-12T00:27:49.229Z,97970.10
2018-10-12T00:30:18.815Z,97971.82
2018-10-12T00:32:48.469Z,97964.45
2018-10-12T00:35:18.093Z,97963.82
2018-10-12T00:37:47.824Z,97964.80
2018-10-12T00:40:17.557Z,97961.34
2018-10-12T00:42:48.493Z,97959.01
2018-10-12T00:45:19.185Z,97965.29
2018-10-12T00:47:53.925Z,97965.44
2018-10-12T00:50:23.664Z,97964.08
2018-10-12T00:52:53.218Z,97965.45
2018-10-12T00:55:23.998Z,97963.81
2018-10-12T00:57:53.553Z,97955.69
2018-10-12T01:00:24.053Z,97961.62
2018-10-12T01:02:53.669Z,97959.76
2018-10-12T01:05:23.350Z,97963.48
2018-10-12T01:07:53.013Z,97967.19
2018-10-12T01:10:22.886Z,97964.33
2018-10-12T01:12:52.516Z,97960.48
2018-10-12T01:15:22.301Z,97963.30
2018-10-12T01:17:52.021Z,97967.24
2018-10-12T01:20:21.656Z,97965.91
2018-10-12T01:22:51.466Z,97968.86
2018-10-12T01:25:21.189Z,97961.08
2018-10-12T01:27:50.917Z,97970.57
2018-10-12T01:30:20.590Z,97967.38
2018-10-12T01:32:55.450Z,97965.15
2018-10-12T01:35:25.161Z,97968.09
2018-10-12T01:37:54.862Z,97970.27
2018-10-12T01:40:24.546Z,97973.02
2018-10-12T01:42:54.233Z,97976.04
2018-10-12T01:45:23.935Z,97975.55
2018-10-12T01:47:53.709Z,97979.54
2018-10-12T01:50:23.377Z,97983.22
2018-10-12T01:52:53.043Z,97980.97
2018-10-12T01:55:22.764Z,97984.44
2018-10-12T01:57:52.373Z,97981.63
2018-10-12T02:00:21.967Z,97985.39
2018-10-12T02:02:51.609Z,97981.87
2018-10-12T02:05:21.313Z,97985.88
2018-10-12T02:07:51.027Z,97993.67
2018-10-12T02:10:21.078Z,97996.03
2018-10-12T02:12:50.752Z,98003.41
2018-10-12T02:15:20.429Z,98004.02
2018-10-12T02:17:50.099Z,97997.72
2018-10-12T02:20:19.669Z,97997.93
2018-10-12T02:22:49.388Z,97995.63
2018-10-12T02:25:19.137Z,97999.52
2018-10-12T02:27:48.794Z,98001.81
2018-10-12T02:30:18.523Z,97997.90
2018-10-12T02:32:48.241Z,98003.07
2018-10-12T02:35:18.010Z,98003.75
2018-10-12T02:37:47.621Z,98010.83
2018-10-12T02:40:17.293Z,98008.36
2018-10-12T02:42:46.973Z,98015.05
2018-10-12T02:45:16.654Z,98016.88
2018-10-12T02:47:46.334Z,98013.45
2018-10-12T02:50:16.094Z,98018.11
2018-10-12T02:52:45.665Z,98019.28
2018-10-12T02:55:15.413Z,98024.25
2018-10-12T02:57:45.138Z,98028.77
2018-10-12T03:00:14.785Z,98029.33
2018-10-12T03:02:44.573Z,98030.38
2018-10-12T03:05:14.141Z,98032.03
2018-10-12T03:07:43.909Z,98028.58
2018-10-12T03:10:13.598Z,98032.33
2018-10-12T03:12:43.189Z,98034.24
2018-10-12T03:15:12.710Z,98031.88
2018-10-12T03:17:42.369Z,98034.52
2018-10-12T03:20:12.017Z,98033.22
2018-10-12T03:22:41.691Z,98040.38
2018-10-12T03:25:11.486Z,98047.45
2018-10-12T03:27:52.270Z,98045.94
2018-10-12T03:30:21.966Z,98046.86
2018-10-12T03:32:51.647Z,98050.68
2018-10-12T03:35:21.286Z,98052.70
2018-10-12T03:37:50.894Z,98055.21
2018-10-12T03:40:20.667Z,98055.77
2018-10-12T03:42:50.410Z,98057.76
2018-10-12T03:45:20.115Z,98062.48
2018-10-12T03:47:49.685Z,98059.16
2018-10-12T03:50:19.390Z,98052.91
2018-10-12T03:52:49.137Z,98056.88
2018-10-12T03:55:18.831Z,98063.92
2018-10-12T03:57:48.489Z,98065.67
2018-10-12T04:00:18.186Z,98069.73
2018-10-12T04:02:47.892Z,98069.72
2018-10-12T04:05:17.577Z,98070.92
2018-10-12T04:07:47.278Z,98074.74
2018-10-12T04:10:16.958Z,98075.88
2018-10-12T04:12:46.802Z,98076.79
2018-10-12T04:15:16.510Z,98080.65
2018-10-12T04:17:46.082Z,98080.25
2018-10-12T04:20:15.828Z,98082.41
2018-10-12T04:22:45.654Z,98090.02
2018-10-12T04:25:15.330Z,98084.82
2018-10-12T04:27:45.001Z,98088.87
2018-10-12T04:30:14.689Z,98088.20
2018-10-12T04:32:44.378Z,98096.36
2018-10-12T04:35:14.191Z,98093.23
2018-10-12T04:37:44.010Z,98095.18
2018-10-12T04:41:28.591Z,98101.83
2018-10-12T04:43:59.648Z,98104.46
2018-10-12T04:46:42.112Z,98108.86
2018-10-12T04:49:14.188Z,98111.77
2018-10-12T04:51:55.056Z,98112.16
2018-10-12T04:54:24.981Z,98111.65
2018-10-12T04:56:54.631Z,98116.02
2018-10-12T04:59:24.402Z,98112.49
2018-10-12T05:01:53.978Z,98115.78
2018-10-12T05:04:23.742Z,98121.66
2018-10-12T05:06:53.399Z,98126.13
2018-10-12T05:09:23.101Z,98123.31
2018-10-12T05:11:52.654Z,98125.95
2018-10-12T05:14:22.392Z,98123.72
2018-10-12T05:16:52.116Z,98126.48
2018-10-12T05:19:21.755Z,98133.17
2018-10-12T05:21:51.454Z,98135.95
2018-10-12T05:24:21.117Z,98140.87
2018-10-12T05:26:50.825Z,98134.34
2018-10-12T05:29:20.565Z,98141.17
2018-10-12T05:31:50.260Z,98140.52
2018-10-12T05:34:19.911Z,98145.36
2018-10-12T05:36:49.610Z,98156.16
2018-10-12T05:39:19.362Z,98156.57
2018-10-12T05:41:49.021Z,98164.48
2018-10-12T05:44:18.682Z,98167.27
2018-10-12T05:46:48.418Z,98164.66
2018-10-12T05:49:29.199Z,98175.50
2018-10-12T05:51:58.893Z,98172.37
2018-10-12T05:54:28.575Z,98174.67
2018-10-12T05:56:58.122Z,98175.52
2018-10-12T05:59:27.717Z,98175.95
2018-10-12T06:01:57.265Z,98182.55
2018-10-12T06:04:26.902Z,98175.44
2018-10-12T06:06:56.461Z,98176.12
2018-10-12T06:09:26.143Z,98184.19
2018-10-12T06:11:55.706Z,98185.38
2018-10-12T06:14:25.470Z,98193.39
2018-10-12T06:16:55.129Z,98198.03
2018-10-12T06:19:24.754Z,98202.44
2018-10-12T06:21:54.369Z,98200.33
2018-10-12T06:24:24.100Z,98198.30
2018-10-12T06:26:54.134Z,98201.95
2018-10-12T06:29:23.725Z,98197.43
2018-10-12T06:31:53.349Z,98202.45
2018-10-12T06:34:23.137Z,98201.19
2018-10-12T06:36:52.621Z,98204.47
2018-10-12T06:39:22.294Z,98218.36
2018-10-12T06:41:52.091Z,98216.33
2018-10-12T06:44:21.705Z,98221.36
2018-10-12T06:46:51.470Z,98218.06
2018-10-12T06:49:21.262Z,98216.61
2018-10-12T06:51:51.002Z,98215.26
2018-10-12T06:54:20.753Z,98225.22
2018-10-12T06:56:50.455Z,98224.52
2018-10-12T06:59:20.183Z,98228.97
2018-10-12T07:01:49.802Z,98222.70
2018-10-12T07:04:19.526Z,98219.80
2018-10-12T07:06:49.205Z,98226.19
2018-10-12T07:09:18.985Z,98226.08
2018-10-12T07:11:49.150Z,98224.89
2018-10-12T07:14:18.855Z,98226.81
2018-10-12T07:16:48.556Z,98218.83
2018-10-12T07:19:18.145Z,98220.07
2018-10-12T07:21:47.769Z,98217.48
2018-10-12T07:24:17.479Z,98222.88
2018-10-12T07:26:47.250Z,98223.73
2018-10-12T07:29:16.893Z,98224.40
2018-10-12T07:31:47.082Z,98224.50
2018-10-12T07:34:16.785Z,98224.20
2018-10-12T07:36:46.559Z,98219.86
2018-10-12T07:39:16.262Z,98223.06
2018-10-12T07:41:45.839Z,98228.36
2018-10-12T07:44:15.522Z,98223.06
2018-10-12T07:46:45.225Z,98222.77
2018-10-12T07:49:14.968Z,98222.88
2018-10-12T07:51:44.640Z,98220.17
2018-10-12T07:54:14.349Z,98220.24
2018-10-12T07:56:44.090Z,98222.38
2018-10-12T07:59:13.662Z,98225.56
2018-10-12T08:01:43.659Z,98226.62
2018-10-12T08:04:13.286Z,98225.65
2018-10-12T08:06:43.026Z,98226.62
2018-10-12T08:09:12.640Z,98220.83
2018-10-12T08:11:42.379Z,98220.05
2018-10-12T08:14:12.046Z,98220.16
2018-10-12T08:16:41.761Z,98220.91
2018-10-12T08:19:12.414Z,98213.79
2018-10-12T08:21:42.134Z,98214.56
2018-10-12T08:24:11.774Z,98209.64
2018-10-12T08:26:41.478Z,98210.99
2018-10-12T08:29:14.143Z,98210.49
2018-10-12T08:31:45.529Z,98210.02
2018-10-12T08:34:15.594Z,98208.97
2018-10-12T08:36:45.413Z,98211.95
2018-10-12T08:39:15.142Z,98216.09
2018-10-12T08:41:45.051Z,98216.73
2018-10-12T08:44:15.199Z,98218.39
2018-10-12T08:46:45.358Z,98218.76
2018-10-12T08:49:14.930Z,98222.03
2018-10-12T08:51:44.661Z,98221.52
2018-10-12T08:54:15.258Z,98214.52
2018-10-12T08:56:45.154Z,98217.88
2018-10-12T08:59:14.888Z,98216.53
2018-10-12T09:01:44.764Z,98216.63
2018-10-12T09:04:14.710Z,98214.21
2018-10-12T09:06:44.525Z,98209.22
2018-10-12T09:09:14.446Z,98213.53
2018-10-12T09:11:45.378Z,98215.76
2018-10-12T09:14:18.038Z,98209.13
2018-10-12T09:16:47.740Z,98204.34
2018-10-12T09:19:17.782Z,98208.24
2018-10-12T09:21:47.578Z,98209.02
2018-10-12T09:24:17.368Z,98209.39
2018-10-12T09:26:47.246Z,98209.19
2018-10-12T09:29:17.808Z,98206.19
2018-10-12T09:31:47.713Z,98209.25
2018-10-12T09:34:17.866Z,98208.75
2018-10-12T09:36:47.741Z,98210.09
2018-10-12T09:39:17.544Z,98211.70
2018-10-12T09:41:47.631Z,98212.28
2018-10-12T09:44:17.866Z,98207.97
2018-10-12T09:46:48.076Z,98214.39
2018-10-12T09:49:17.926Z,98209.63
2018-10-12T09:51:47.630Z,98203.92
2018-10-12T09:54:17.434Z,98211.40
2018-10-12T09:56:52.389Z,98207.75
2018-10-12T09:59:22.428Z,98213.42
2018-10-12T10:01:57.356Z,98216.73
2018-10-12T10:04:31.662Z,98215.17
2018-10-12T10:07:06.586Z,98209.37
2018-10-12T10:09:37.652Z,98207.13
2018-10-12T10:12:07.452Z,98201.17
2018-10-12T10:14:37.339Z,98205.33
2018-10-12T10:17:07.079Z,98199.16
2018-10-12T10:19:36.753Z,98205.42
2018-10-12T10:22:06.508Z,98204.28
2018-10-12T10:24:36.198Z,98199.73
2018-10-12T10:27:05.917Z,98193.67
2018-10-12T10:29:35.622Z,98198.12
2018-10-12T10:32:05.322Z,98191.09
2018-10-12T10:34:35.039Z,98191.76
2018-10-12T10:37:04.821Z,98193.67
2018-10-12T10:39:34.413Z,98192.27
2018-10-12T10:42:04.294Z,98191.86
2018-10-12T10:44:33.870Z,98190.61
2018-10-12T10:47:03.546Z,98181.48
2018-10-12T10:49:33.187Z,98180.61
2018-10-12T10:52:03.889Z,98187.81
2018-10-12T10:54:34.414Z,98190.04
2018-10-12T10:57:05.101Z,98192.16
2018-10-12T10:59:36.157Z,98189.27
2018-10-12T11:02:05.822Z,98188.39
2018-10-12T11:04:35.750Z,98186.94
2018-10-12T11:07:06.372Z,98181.95
2018-10-12T11:09:35.967Z,98181.55
2018-10-12T11:12:13.197Z,98185.80
2018-10-12T11:14:50.645Z,98179.63
2018-10-12T11:17:25.622Z,98178.18
2018-10-12T11:20:01.041Z,98181.17
2018-10-12T11:22:32.827Z,98177.13
2018-10-12T11:25:07.473Z,98179.73
2018-10-12T11:27:37.109Z,98179.26
2018-10-12T11:30:06.731Z,98175.28
2018-10-12T11:32:36.599Z,98175.22
2018-10-12T11:35:06.646Z,98177.91
2018-10-12T11:37:37.507Z,98170.15
2018-10-12T11:40:07.222Z,98173.52
2018-10-12T11:43:41.029Z,98173.52
2018-10-12T11:46:10.977Z,98174.40
2018-10-12T11:48:40.722Z,98175.33
2018-10-12T11:51:10.443Z,98172.75
2018-10-12T11:53:40.479Z,98169.00
2018-10-12T11:56:10.142Z,98173.52
2018-10-12T11:58:40.053Z,98175.91
2018-10-12T12:01:09.761Z,98168.12
2018-10-12T12:03:39.598Z,98165.13
2018-10-12T12:06:09.295Z,98165.33
2018-10-12T12:08:38.982Z,98161.12
2018-10-12T12:11:08.814Z,98159.27
2018-10-12T12:13:38.486Z,98159.07
2018-10-12T12:16:08.172Z,98154.86
2018-10-12T12:18:37.806Z,98163.05
2018-10-12T12:21:07.657Z,98167.09
2018-10-12T12:23:37.446Z,98163.61
2018-10-12T12:26:07.037Z,98168.80
2018-10-12T12:28:36.777Z,98160.61
2018-10-12T12:31:06.393Z,98161.39
2018-10-12T12:33:36.070Z,98159.95
2018-10-12T12:36:07.284Z,98160.05
2018-10-12T12:38:36.842Z,98161.77
2018-10-12T12:41:06.410Z,98158.59
2018-10-12T12:43:36.046Z,98156.95
2018-10-12T12:46:05.658Z,98158.39
2018-10-12T12:48:35.749Z,98151.66
2018-10-12T12:51:05.038Z,98151.66
2018-10-12T12:53:34.840Z,98158.02
2018-10-12T12:56:04.458Z,98151.92
2018-10-12T12:58:34.098Z,98157.31
2018-10-12T13:01:03.770Z,98153.77
2018-10-12T13:03:33.491Z,98161.45
2018-10-12T13:06:03.242Z,98160.88
2018-10-12T13:08:33.300Z,98160.20
2018-10-12T13:11:03.046Z,98157.88
2018-10-12T13:13:32.735Z,98156.27
2018-10-12T13:16:02.421Z,98160.41
2018-10-12T13:18:32.163Z,98159.73
2018-10-12T13:21:01.844Z,98156.47
2018-10-12T13:23:31.525Z,98159.42
2018-10-12T13:26:01.448Z,98155.69
2018-10-12T13:28:30.962Z,98153.77
2018-10-12T13:31:00.606Z,98160.36
2018-10-12T13:33:30.281Z,98160.30
2018-10-12T13:35:59.965Z,98153.16
2018-10-12T13:38:29.623Z,98157.20
2018-10-12T13:40:59.298Z,98150.16
2018-10-12T13:43:29.070Z,98154.03
2018-10-12T13:45:58.749Z,98151.71
2018-10-12T13:48:28.420Z,98154.51
2018-10-12T13:50:58.161Z,98145.17
2018-10-12T13:53:27.834Z,98154.70
2018-10-12T13:55:57.353Z,98152.95
2018-10-12T13:58:26.990Z,98153.15
2018-10-12T14:00:56.587Z,98144.40
2018-10-12T14:03:26.161Z,98149.89
2018-10-12T14:05:55.976Z,98152.17
2018-10-12T14:08:25.621Z,98153.15
2018-10-12T14:10:55.319Z,98155.91
2018-10-12T14:13:24.954Z,98151.39
2018-10-12T14:15:54.627Z,98150.38
2018-10-12T14:18:24.339Z,98147.78
2018-10-12T14:20:53.986Z,98145.09
2018-10-12T14:23:23.649Z,98146.33
2018-10-12T14:25:53.322Z,98144.30
2018-10-12T14:28:23.001Z,98149.69
2018-10-12T14:30:52.773Z,98146.02
2018-10-12T14:33:22.451Z,98147.68
2018-10-12T14:35:52.236Z,98148.34
2018-10-12T14:38:21.901Z,98146.31
2018-10-12T14:40:51.631Z,98147.61
2018-10-12T14:43:21.621Z,98148.80
2018-10-12T14:45:51.301Z,98146.01
2018-10-12T14:48:20.984Z,98147.70
2018-10-12T14:50:50.641Z,98144.45
2018-10-12T14:53:20.383Z,98152.12
2018-10-12T14:55:50.070Z,98149.63
2018-10-12T14:58:19.708Z,98152.69
2018-10-12T15:00:49.343Z,98150.00
2018-10-12T15:03:19.162Z,98153.66
2018-10-12T15:05:48.894Z,98142.67
2018-10-12T15:08:18.575Z,98147.28
2018-10-12T15:10:48.214Z,98152.26
2018-10-12T15:13:17.916Z,98147.28
2018-10-12T15:15:47.556Z,98148.88
2018-10-12T15:18:17.230Z,98149.97
2018-10-12T15:20:46.861Z,98146.03
2018-10-12T15:23:16.532Z,98152.35
2018-10-12T15:25:46.217Z,98151.48
2018-10-12T15:28:15.858Z,98156.39
2018-10-12T15:30:45.462Z,98162.75
2018-10-12T15:33:15.135Z,98162.53
2018-10-12T15:35:44.846Z,98164.81
2018-10-12T15:38:14.571Z,98168.19
2018-10-12T15:40:44.774Z,98173.67
2018-10-12T15:43:14.959Z,98176.70
2018-10-12T15:45:44.937Z,98175.83
2018-10-12T15:48:14.714Z,98184.88
2018-10-12T15:50:44.751Z,98180.74
2018-10-12T15:53:14.454Z,98182.56
2018-10-12T15:55:44.149Z,98184.69
2018-10-12T15:58:13.835Z,98183.06
2018-10-12T16:00:43.594Z,98181.97
2018-10-12T16:03:13.262Z,98189.72
2018-10-12T16:05:42.970Z,98190.41
2018-10-12T16:08:12.726Z,98189.57
2018-10-12T16:10:42.427Z,98191.76
2018-10-12T16:13:12.098Z,98192.32
2018-10-12T16:15:41.837Z,98196.30
2018-10-12T16:18:11.514Z,98204.28
2018-10-12T16:20:41.330Z,98200.89
2018-10-12T16:23:11.073Z,98203.49
2018-10-12T16:25:54.295Z,98205.30
2018-10-12T16:28:24.149Z,98206.34
2018-10-12T16:30:54.471Z,98211.66
2018-10-12T16:33:24.366Z,98214.34
2018-10-12T16:35:55.413Z,98223.67
2018-10-12T16:38:25.054Z,98229.15
2018-10-12T16:40:54.809Z,98236.72
2018-10-12T16:43:24.482Z,98238.56
2018-10-12T16:45:54.267Z,98238.94
2018-10-12T16:48:24.018Z,98240.06
2018-10-12T16:50:53.694Z,98240.53
2018-10-12T16:53:23.370Z,98244.51
2018-10-12T16:55:53.042Z,98248.55
2018-10-12T16:58:22.762Z,98252.27
2018-10-12T17:00:52.417Z,98256.20
2018-10-12T17:03:22.187Z,98258.52
2018-10-12T17:05:51.802Z,98263.02
2018-10-12T17:08:21.485Z,98267.53
2018-10-12T17:10:51.166Z,98270.13
2018-10-12T17:13:20.857Z,98267.98
2018-10-12T17:15:50.531Z,98272.48
2018-10-12T17:18:20.260Z,98277.87
2018-10-12T17:20:49.881Z,98275.73
2018-10-12T17:23:19.518Z,98274.58
2018-10-12T17:25:49.199Z,98279.08
2018-10-12T17:28:18.901Z,98275.45
2018-10-12T17:30:48.887Z,98282.23
2018-10-12T17:33:18.567Z,98280.61
2018-10-12T17:35:48.390Z,98286.92
2018-10-12T17:38:18.178Z,98294.91
2018-10-12T17:40:47.921Z,98283.58
2018-10-12T17:43:17.643Z,98285.11
2018-10-12T17:45:47.726Z,98293.27
2018-10-12T17:48:17.394Z,98291.19
2018-10-12T17:50:47.037Z,98289.75
2018-10-12T17:53:16.717Z,98291.97
2018-10-12T17:55:46.426Z,98291.66
2018-10-12T17:58:16.179Z,98298.47
2018-10-12T18:00:45.844Z,98301.16
2018-10-12T18:03:15.493Z,98304.82
2018-10-12T18:05:45.766Z,98301.95
2018-10-12T18:08:15.596Z,98306.08
2018-10-12T18:10:45.408Z,98306.08
2018-10-12T18:13:16.163Z,98307.80
2018-10-12T18:15:45.771Z,98314.84
2018-10-12T18:18:16.477Z,98314.52
2018-10-12T18:20:47.037Z,98313.27
2018-10-12T18:23:16.995Z,98317.72
2018-10-12T18:25:46.735Z,98322.37
2018-10-12T18:28:16.449Z,98321.44
2018-10-12T18:30:46.157Z,98323.89
2018-10-12T18:33:15.812Z,98324.13
2018-10-12T18:35:45.496Z,98327.28
2018-10-12T18:38:16.349Z,98323.56
2018-10-12T18:40:46.769Z,98325.15
2018-10-12T18:43:16.717Z,98328.07
2018-10-12T18:45:46.246Z,98328.95
2018-10-12T18:48:16.011Z,98333.86
2018-10-12T18:50:46.547Z,98337.48
2018-10-12T18:53:16.598Z,98339.71
2018-10-12T18:55:46.346Z,98338.36
2018-10-12T18:58:16.530Z,98339.71
2018-10-12T19:00:46.140Z,98340.09
2018-10-12T19:03:15.923Z,98342.55
2018-10-12T19:05:45.713Z,98343.98
2018-10-12T19:08:15.394Z,98348.80
2018-10-12T19:10:45.086Z,98349.77
2018-10-12T19:13:14.621Z,98358.22
2018-10-12T19:15:44.846Z,98356.97
2018-10-12T19:18:15.444Z,98361.87
2018-10-12T19:20:45.073Z,98361.87
2018-10-12T19:23:14.966Z,98353.48
2018-10-12T19:25:44.639Z,98361.09
2018-10-12T19:28:14.418Z,98363.37
2018-10-12T19:30:44.676Z,98365.50
2018-10-12T19:33:14.519Z,98369.08
2018-10-12T19:35:44.242Z,98371.36
2018-10-12T19:38:13.895Z,98373.81
2018-10-12T19:40:43.554Z,98376.45
2018-10-12T19:43:13.294Z,98378.72
2018-10-12T19:45:43.054Z,98380.53
2018-10-12T19:48:12.754Z,98375.56
2018-10-12T19:50:42.460Z,98379.69
2018-10-12T19:53:12.069Z,98386.80
2018-10-12T19:55:42.049Z,98382.44
2018-10-12T19:58:11.690Z,98386.09
2018-10-12T20:00:41.537Z,98377.94
2018-10-12T20:03:11.513Z,98381.03
2018-10-12T20:05:41.309Z,98385.69
2018-10-12T20:08:11.141Z,98385.22
2018-10-12T20:10:40.746Z,98388.38
2018-10-12T20:13:10.449Z,98388.23
2018-10-12T20:15:40.302Z,98389.66
2018-10-12T20:18:09.994Z,98392.12
2018-10-12T20:20:39.721Z,98388.88
2018-10-12T20:23:09.550Z,98400.98
2018-10-12T20:25:39.253Z,98395.89
2018-10-12T20:28:08.991Z,98397.73
2018-10-12T20:30:38.838Z,98394.16
2018-10-12T20:33:08.538Z,98395.33
2018-10-12T20:35:38.506Z,98397.17
2018-10-12T20:38:09.242Z,98389.48
2018-10-12T20:40:38.911Z,98390.36
2018-10-12T20:43:08.585Z,98394.87
2018-10-12T20:45:38.398Z,98390.36
2018-10-12T20:48:08.269Z,98395.28
2018-10-12T20:50:39.076Z,98389.11
2018-10-12T20:53:08.825Z,98391.63
2018-10-12T20:55:38.382Z,98392.17
2018-10-12T20:58:12.137Z,98386.80
2018-10-12T21:00:41.826Z,98392.03
2018-10-12T21:03:11.535Z,98386.42
2018-10-12T21:05:41.805Z,98390.36
2018-10-12T21:08:11.465Z,98384.98
2018-10-12T21:10:41.221Z,98388.31
2018-10-12T21:13:10.941Z,98385.54
2018-10-12T21:15:40.798Z,98381.73
2018-10-12T21:18:10.566Z,98377.23
2018-10-12T21:20:41.114Z,98377.61
2018-10-12T21:23:10.965Z,98375.95
2018-10-12T21:25:40.973Z,98381.83
2018-10-12T21:28:10.773Z,98378.41
2018-10-12T21:30:40.502Z,98369.72
2018-10-12T21:33:10.242Z,98373.58
2018-10-12T21:35:39.949Z,98376.27
2018-10-12T21:38:09.603Z,98376.27
2018-10-12T21:40:39.474Z,98378.17
2018-10-12T21:43:09.193Z,98373.75
2018-10-12T21:45:38.993Z,98377.37
2018-10-12T21:48:08.670Z,98374.69
2018-10-12T21:50:38.500Z,98379.19
2018-10-12T21:53:08.232Z,98372.97
2018-10-12T21:55:37.923Z,98370.83
2018-10-12T21:58:07.912Z,98375.16
2018-10-12T22:00:37.822Z,98370.42
2018-10-12T22:03:07.537Z,98372.23
2018-10-12T22:05:39.928Z,98370.04
2018-10-12T22:10:47.534Z,98364.66
2018-10-12T22:13:17.185Z,98368.98
2018-10-12T22:15:46.755Z,98364.66
2018-10-12T22:18:16.470Z,98375.42
2018-10-12T22:20:46.157Z,98368.38
2018-10-12T22:23:15.846Z,98366.62
2018-10-12T22:25:45.577Z,98372.50
2018-10-12T22:28:15.345Z,98369.30
2018-10-12T22:30:45.119Z,98372.96
2018-10-12T22:33:14.808Z,98369.80
2018-10-12T22:35:44.393Z,98370.80
2018-10-12T22:38:14.098Z,98365.88
2018-10-12T22:40:43.771Z,98371.27
2018-10-12T22:43:13.514Z,98381.09
2018-10-12T22:45:43.223Z,98371.27
2018-10-12T22:48:12.961Z,98365.50
2018-10-12T22:50:42.640Z,98378.07
2018-10-12T22:53:12.314Z,98368.66
2018-10-12T22:55:41.989Z,98369.13
2018-10-12T22:58:11.763Z,98368.57
2018-10-12T23:00:41.434Z,98368.25
2018-10-12T23:03:11.280Z,98371.34
2018-10-12T23:05:40.985Z,98373.07
2018-10-12T23:08:10.669Z,98372.28
2018-10-12T23:10:40.405Z,98377.75
2018-10-12T23:13:10.596Z,98380.06
2018-10-12T23:15:40.329Z,98376.41
2018-10-12T23:18:10.011Z,98372.83
2018-10-12T23:20:39.645Z,98372.83
2018-10-12T23:23:09.330Z,98377.37
2018-10-12T23:25:39.038Z,98381.78
2018-10-12T23:28:08.769Z,98385.81
2018-10-12T23:30:38.382Z,98384.94
2018-10-12T23:33:18.936Z,98386.78
2018-10-12T23:35:48.646Z,98387.72
2018-10-12T23:38:18.342Z,98390.02
2018-10-12T23:40:47.962Z,98386.84
2018-10-12T23:43:17.673Z,98393.51
2018-10-12T23:45:47.274Z,98391.75
2018-10-12T23:48:16.956Z,98389.52
2018-10-12T23:50:46.585Z,98394.11
2018-10-12T23:53:16.196Z,98395.88
2018-10-12T23:55:45.853Z,98391.42
2018-10-12T23:58:15.718Z,98390.41
